Time;durP1;ratioP1;P1;durP2;ratioP2;P2;SDS_P1;SDS_P2;PMS_P1;PMS_P2;Temp;Humidity;BMP_temperature;BMP_pressure;BME280_temperature;BME280_humidity;BME280_pressure;Samples;Min_cycle;Max_cycle;Signal;HPM_P1;HPM_P2
2022/07/21 00:01:29;;;;;;;10.82;8.80;;;;;;;27.37;49.31;101722.31;5084527;28;20055;-60
2022/07/21 00:03:54;;;;;;;9.13;8.05;;;;;;;27.39;49.07;101725.66;5085906;28;20070;-59
2022/07/21 00:06:19;;;;;;;10.93;9.13;;;;;;;27.38;49.48;101721.25;5084119;28;20024;-59
2022/07/21 00:08:44;;;;;;;10.82;8.73;;;;;;;27.38;49.38;101715.81;5083954;28;20035;-60
2022/07/21 00:11:11;;;;;;;10.45;9.30;;;;;;;27.38;49.34;101724.84;5054832;28;20020;-59
2022/07/21 00:13:37;;;;;;;11.85;9.90;;;;;;;27.25;49.68;101708.41;5063682;28;20025;-59
2022/07/21 00:16:02;;;;;;;10.98;9.50;;;;;;;27.35;49.44;101730.69;5064817;28;20025;-59
2022/07/21 00:18:28;;;;;;;10.25;9.15;;;;;;;27.34;49.48;101733.63;5065712;28;20052;-59
2022/07/21 00:20:55;;;;;;;11.40;9.57;;;;;;;27.35;49.68;101738.06;5063930;28;20100;-59
2022/07/21 00:23:21;;;;;;;9.77;8.77;;;;;;;27.36;49.44;101734.28;5064859;28;20120;-59
2022/07/21 00:25:47;;;;;;;10.98;9.10;;;;;;;27.16;49.72;101715.09;5063630;28;20032;-60
2022/07/21 00:28:12;;;;;;;12.75;10.00;;;;;;;27.36;49.78;101743.31;5065212;28;20029;-60
2022/07/21 00:30:37;;;;;;;11.40;10.18;;;;;;;27.15;49.97;101702.50;5063742;28;20032;-59
2022/07/21 00:33:03;;;;;;;10.40;9.38;;;;;;;27.35;49.73;101746.25;5065145;28;20024;-60
2022/07/21 00:35:28;;;;;;;10.35;9.30;;;;;;;27.35;49.59;101738.06;5063413;28;20058;-60
2022/07/21 00:37:53;;;;;;;14.95;10.70;;;;;;;27.15;49.88;101697.06;5063315;28;20466;-60
2022/07/21 00:40:19;;;;;;;9.57;8.57;;;;;;;27.29;49.50;101726.06;5063857;28;20056;-59
2022/07/21 00:42:45;;;;;;;10.32;8.75;;;;;;;27.19;50.04;101700.19;5064440;28;20085;-59
2022/07/21 00:45:11;;;;;;;11.82;10.13;;;;;;;27.33;49.76;101729.22;5063777;28;20052;-60
2022/07/21 00:47:37;;;;;;;12.50;9.93;;;;;;;27.34;49.70;101722.72;5064703;28;20514;-60
2022/07/21 00:50:09;;;;;;;12.05;9.73;;;;;;;27.33;49.92;101719.16;5046817;28;20033;-59
2022/07/21 00:52:35;;;;;;;10.60;9.15;;;;;;;27.14;49.53;101685.28;5063650;28;20021;-60
2022/07/21 00:55:01;;;;;;;9.73;8.68;;;;;;;27.32;49.64;101714.75;5064682;28;20107;-59
2022/07/21 00:57:27;;;;;;;11.20;9.82;;;;;;;27.15;49.59;101688.84;5064987;28;20493;-59
2022/07/21 00:59:52;;;;;;;10.00;8.98;;;;;;;27.26;50.08;101706.50;5063781;28;20028;-60
2022/07/21 01:02:17;;;;;;;10.55;9.45;;;;;;;27.11;49.96;101679.41;5066298;28;20059;-59
2022/07/21 01:04:43;;;;;;;11.65;9.57;;;;;;;27.11;49.98;101673.94;5077192;28;20025;-60
2022/07/21 01:07:08;;;;;;;10.52;9.15;;;;;;;27.29;50.08;101698.75;5071118;28;20040;-59
2022/07/21 01:09:35;;;;;;;10.52;9.43;;;;;;;27.30;50.14;101696.88;5064277;28;20041;-59
2022/07/21 01:12:01;;;;;;;10.70;9.60;;;;;;;27.08;49.79;101666.13;5080228;28;20021;-58
2022/07/21 01:14:26;;;;;;;10.20;9.02;;;;;;;27.29;49.90;101708.84;5083585;28;20107;-58
2022/07/21 01:16:52;;;;;;;10.13;9.05;;;;;;;27.28;50.09;101705.28;5083142;28;20501;-59
2022/07/21 01:19:18;;;;;;;10.20;9.02;;;;;;;27.27;50.07;101705.47;5076470;28;20382;-58
2022/07/21 01:21:46;;;;;;;12.30;9.45;;;;;;;27.27;49.97;101709.06;5063204;28;20095;-60
2022/07/21 01:24:11;;;;;;;11.35;9.55;;;;;;;27.06;49.73;101669.06;5046295;28;20092;-59
2022/07/21 01:26:45;;;;;;;10.77;9.70;;;;;;;27.24;50.10;101700.44;5063966;28;20033;-60
2022/07/21 01:29:11;;;;;;;10.20;9.10;;;;;;;27.25;50.04;101708.41;5067250;28;20048;-60
2022/07/21 01:31:37;;;;;;;11.00;9.23;;;;;;;27.24;49.98;101697.72;5068004;28;20100;-59
2022/07/21 01:34:03;;;;;;;10.52;9.43;;;;;;;27.24;50.07;101695.81;5067003;28;20021;-59
2022/07/21 01:36:28;;;;;;;10.88;9.02;;;;;;;27.24;49.88;101692.25;5074491;28;20027;-59
2022/07/21 01:41:38;;;;;;;11.38;10.23;;;;;;;27.04;49.97;101646.56;5087699;28;20035;-59
2022/07/21 01:44:05;;;;;;;10.77;9.55;;;;;;;27.22;49.93;101677.94;5088270;28;20107;-59
2022/07/21 01:46:33;;;;;;;10.50;8.82;;;;;;;27.23;50.28;101677.75;5087817;28;20049;-59
2022/07/21 01:48:58;;;;;;;11.43;9.57;;;;;;;27.00;50.08;101639.84;5086752;28;20040;-59
2022/07/21 01:51:24;;;;;;;10.00;9.00;;;;;;;27.20;49.73;101680.06;5069896;28;20288;-59
2022/07/21 01:53:50;;;;;;;9.90;8.90;;;;;;;27.21;49.96;101689.91;5085925;28;20116;-58
2022/07/21 01:56:18;;;;;;;11.00;9.75;;;;;;;27.19;50.13;101689.25;5069661;28;20025;-59
2022/07/21 01:58:44;;;;;;;11.70;9.52;;;;;;;27.19;50.12;101687.41;5087822;28;20020;-59
2022/07/21 02:01:09;;;;;;;10.50;9.38;;;;;;;27.20;50.08;101688.25;5086407;28;20125;-59
2022/07/21 02:03:34;;;;;;;11.05;9.68;;;;;;;27.16;50.03;101682.34;5086556;28;20111;-59
2022/07/21 02:06:04;;;;;;;12.90;9.95;;;;;;;27.00;50.05;101653.47;5086192;28;20021;-59
2022/07/21 02:08:30;;;;;;;9.93;8.77;;;;;;;27.18;50.16;101680.22;5085960;28;20020;-60
2022/07/21 02:10:56;;;;;;;14.50;10.00;;;;;;;26.99;50.07;101660.00;5075567;28;20059;-59
2022/07/21 02:13:21;;;;;;;10.35;9.25;;;;;;;27.16;50.17;101680.44;5066033;28;20127;-60
2022/07/21 02:15:46;;;;;;;9.52;8.57;;;;;;;26.96;50.07;101651.38;5067282;28;20029;-60
2022/07/21 02:18:11;;;;;;;10.32;9.25;;;;;;;27.12;50.17;101694.72;5067367;28;20020;-59
2022/07/21 02:20:37;;;;;;;9.65;8.57;;;;;;;27.14;50.20;101688.03;5067324;28;20025;-59
2022/07/21 02:23:02;;;;;;;9.60;8.65;;;;;;;27.14;50.26;101682.56;5066644;28;20043;-59
2022/07/21 02:25:27;;;;;;;10.02;9.02;;;;;;;27.15;49.98;101683.41;5067349;28;20052;-59
2022/07/21 02:27:52;;;;;;;11.85;9.65;;;;;;;26.98;49.89;101655.59;5067092;28;20179;-59
2022/07/21 02:30:18;;;;;;;9.75;8.73;;;;;;;27.13;49.94;101680.00;5066997;28;20025;-58
2022/07/21 02:32:43;;;;;;;9.35;8.45;;;;;;;27.11;49.93;101674.78;5070661;28;20021;-58
2022/07/21 02:35:08;;;;;;;9.95;8.95;;;;;;;27.11;49.90;101676.66;5081923;28;20503;-59
2022/07/21 02:37:34;;;;;;;10.30;9.20;;;;;;;27.08;50.20;101671.56;5069752;28;20028;-59
2022/07/21 02:39:59;;;;;;;8.98;7.93;;;;;;;27.11;50.04;101677.50;5068416;28;20064;-60
2022/07/21 02:42:24;;;;;;;9.93;8.35;;;;;;;27.11;49.99;101680.22;5086929;28;20032;-60
2022/07/21 02:44:49;;;;;;;9.00;8.10;;;;;;;27.11;49.90;101676.66;5085671;28;20021;-60
2022/07/21 02:47:15;;;;;;;9.40;8.50;;;;;;;27.10;49.77;101674.97;5068645;28;20045;-59
2022/07/21 02:49:40;;;;;;;9.27;7.97;;;;;;;27.09;49.76;101676.84;5074090;28;20044;-59
2022/07/21 02:52:05;;;;;;;10.05;8.32;;;;;;;27.10;49.97;101674.97;5066848;28;20029;-59
2022/07/21 02:54:31;;;;;;;8.77;7.88;;;;;;;27.09;49.82;101685.03;5066397;28;20025;-58
2022/07/21 02:56:56;;;;;;;9.68;8.23;;;;;;;26.79;49.77;101626.31;5065153;28;20500;-60
2022/07/21 02:59:22;;;;;;;8.73;7.82;;;;;;;27.09;50.14;101678.72;5066785;28;20095;-59
2022/07/21 03:01:47;;;;;;;9.07;8.25;;;;;;;27.08;49.79;101677.88;5066259;28;20048;-59
2022/07/21 03:04:12;;;;;;;8.88;7.97;;;;;;;26.88;49.78;101642.31;5066670;28;20024;-59
2022/07/21 03:06:38;;;;;;;8.27;7.43;;;;;;;27.06;49.91;101677.25;5076907;28;20021;-60
2022/07/21 03:09:04;;;;;;;8.63;7.72;;;;;;;26.90;49.42;101642.13;5086117;28;20033;-60
2022/07/21 03:11:29;;;;;;;9.10;7.88;;;;;;;26.82;49.66;101624.03;5086625;28;20043;-59
2022/07/21 03:13:54;;;;;;;8.27;6.90;;;;;;;26.83;49.84;101628.44;5084809;28;20029;-60
2022/07/21 03:16:20;;;;;;;8.13;7.30;;;;;;;26.85;49.61;101634.56;5086087;28;20035;-59
2022/07/21 03:18:45;;;;;;;8.05;7.25;;;;;;;27.03;49.44;101657.72;5086434;28;20103;-60
2022/07/21 03:21:10;;;;;;;7.93;7.13;;;;;;;26.98;49.36;101657.47;5086184;28;20044;-59
2022/07/21 03:23:35;;;;;;;8.18;7.10;;;;;;;26.80;49.35;101617.94;5084666;28;20462;-59
2022/07/21 03:26:01;;;;;;;7.78;6.97;;;;;;;26.83;49.70;101624.88;5086101;28;20028;-59
2022/07/21 03:28:26;;;;;;;7.72;6.78;;;;;;;26.82;49.25;101618.59;5085218;28;20035;-59
2022/07/21 03:30:51;;;;;;;7.00;6.30;;;;;;;26.92;49.23;101646.31;5084740;28;20075;-60
2022/07/21 03:33:16;;;;;;;7.30;6.57;;;;;;;26.99;49.37;101659.16;5086325;28;20028;-59
2022/07/21 03:35:42;;;;;;;6.95;6.13;;;;;;;26.98;49.30;101663.78;5085740;28;20033;-60
2022/07/21 03:38:07;;;;;;;6.97;6.28;;;;;;;26.97;49.07;101653.88;5085628;28;20085;-60
2022/07/21 03:40:35;;;;;;;7.25;6.15;;;;;;;26.96;49.06;101654.09;5077174;28;20025;-59
2022/07/21 03:43:01;;;;;;;8.32;7.25;;;;;;;26.96;49.37;101648.66;5064322;28;20025;-60
2022/07/21 03:45:30;;;;;;;7.57;6.07;;;;;;;26.74;49.18;101601.56;5065725;28;20036;-59
2022/07/21 03:47:57;;;;;;;6.95;6.25;;;;;;;26.96;49.10;101648.66;5064374;28;20100;-59
2022/07/21 03:50:22;;;;;;;7.20;6.20;;;;;;;26.94;48.98;101657.03;5047267;28;20029;-58
2022/07/21 03:52:47;;;;;;;7.28;6.20;;;;;;;26.73;49.03;101632.63;5065678;28;20062;-59
2022/07/21 03:55:17;;;;;;;7.88;6.22;;;;;;;26.94;49.37;101661.66;5063981;28;20136;-59
2022/07/21 03:57:44;;;;;;;;;;;;;;;26.91;49.04;101655.56;5065907;28;20017;-60
2022/07/21 04:00:12;;;;;;;7.32;6.25;;;;;;;26.91;49.32;101658.28;5047771;28;19909;-59
2022/07/21 04:02:37;;;;;;;7.03;6.38;;;;;;;26.89;49.31;101668.56;5065329;28;20028;-59
2022/07/21 04:05:04;;;;;;;7.22;5.97;;;;;;;26.89;48.77;101665.00;5064228;28;20033;-59
2022/07/21 04:07:29;;;;;;;6.85;6.07;;;;;;;26.90;49.07;101663.97;5064221;28;20021;-59
2022/07/21 04:09:54;;;;;;;6.50;5.90;;;;;;;26.89;49.09;101660.38;5064066;28;20373;-60
2022/07/21 04:12:20;;;;;;;6.05;5.45;;;;;;;26.89;48.92;101662.28;5065602;28;20043;-60
2022/07/21 04:14:45;;;;;;;6.97;6.30;;;;;;;26.72;49.37;101639.09;5065428;28;20032;-59
2022/07/21 04:17:10;;;;;;;8.13;6.35;;;;;;;26.88;49.11;101653.22;5065215;28;20059;-59
2022/07/21 04:19:35;;;;;;;5.97;5.38;;;;;;;26.66;48.86;101616.22;5064055;28;20056;-59
2022/07/21 04:22:01;;;;;;;6.25;5.65;;;;;;;26.84;49.08;101649.22;5065303;28;20452;-59
2022/07/21 04:24:26;;;;;;;6.90;5.80;;;;;;;26.80;48.98;101647.94;5065038;28;20121;-59
2022/07/21 04:26:52;;;;;;;7.63;6.45;;;;;;;26.86;48.96;101662.69;5063808;28;20020;-59
2022/07/21 04:29:17;;;;;;;6.30;5.57;;;;;;;26.84;49.04;101657.41;5065463;28;20025;-60
2022/07/21 04:31:42;;;;;;;7.43;6.63;;;;;;;26.85;49.05;101659.13;5047104;28;20021;-60
2022/07/21 04:34:07;;;;;;;5.90;5.30;;;;;;;26.86;49.06;101659.94;5065083;28;20017;-59
2022/07/21 04:36:32;;;;;;;6.47;5.90;;;;;;;26.66;48.83;101633.41;5064767;28;20029;-60
2022/07/21 04:38:58;;;;;;;8.38;6.43;;;;;;;26.82;49.09;101661.41;5064927;28;20536;-59
2022/07/21 04:41:23;;;;;;;6.57;5.88;;;;;;;26.84;49.04;101671.03;5081016;28;20024;-60
2022/07/21 04:43:48;;;;;;;9.18;6.25;;;;;;;26.83;49.04;101661.19;5084693;28;20031;-59
2022/07/21 04:46:15;;;;;;;6.65;5.75;;;;;;;26.83;49.31;101657.63;5084988;28;20389;-60
2022/07/21 04:48:40;;;;;;;6.70;6.00;;;;;;;26.83;49.18;101671.25;5084855;28;20106;-60
2022/07/21 04:51:06;;;;;;;8.00;6.03;;;;;;;26.83;48.96;101668.53;5083707;28;20045;-60
2022/07/21 04:53:31;;;;;;;6.07;5.20;;;;;;;26.83;48.88;101676.72;5084705;28;20481;-60
2022/07/21 04:55:56;;;;;;;7.38;6.20;;;;;;;26.78;49.09;101651.94;5083502;28;20063;-60
2022/07/21 04:58:22;;;;;;;7.95;6.40;;;;;;;26.81;49.05;101663.28;5085153;28;20043;-60
2022/07/21 05:00:47;;;;;;;6.57;5.88;;;;;;;26.78;49.04;101663.69;5084714;28;20084;-59
2022/07/21 05:03:13;;;;;;;7.18;6.28;;;;;;;26.79;49.52;101669.97;5087259;28;20036;-59
2022/07/21 05:05:38;;;;;;;6.60;5.90;;;;;;;26.80;49.18;101672.50;5086839;28;20029;-60
2022/07/21 05:08:04;;;;;;;7.90;6.53;;;;;;;26.60;49.04;101633.41;5050118;28;20085;-60
2022/07/21 05:10:29;;;;;;;6.80;6.00;;;;;;;26.81;48.87;101662.47;5048562;28;20028;-60
2022/07/21 05:12:54;;;;;;;6.38;5.63;;;;;;;26.80;49.26;101663.47;5048204;28;20021;-58
2022/07/21 05:15:20;;;;;;;8.77;6.22;;;;;;;26.80;49.15;101652.56;5048756;28;20029;-60
2022/07/21 05:17:45;;;;;;;6.65;5.97;;;;;;;26.79;49.01;101645.44;5047197;28;20030;-59
2022/07/21 05:20:11;;;;;;;7.28;6.57;;;;;;;26.66;49.22;101613.47;5048761;28;20063;-59
2022/07/21 05:22:36;;;;;;;7.20;6.15;;;;;;;26.54;49.40;101582.38;5048676;28;20057;-59
2022/07/21 05:25:02;;;;;;;6.85;6.18;;;;;;;26.60;49.16;101587.03;5048128;28;20386;-59
2022/07/21 05:27:27;;;;;;;7.47;6.68;;;;;;;26.58;49.10;101570.84;5063484;28;20040;-59
2022/07/21 05:29:53;;;;;;;8.77;6.65;;;;;;;26.77;49.16;101599.25;5047023;28;20025;-60
2022/07/21 05:32:18;;;;;;;8.98;6.93;;;;;;;26.77;49.22;101595.69;5063570;28;20029;-59
2022/07/21 05:34:43;;;;;;;7.75;6.35;;;;;;;26.75;49.07;101584.13;5048165;28;20037;-59
2022/07/21 05:37:08;;;;;;;8.77;6.93;;;;;;;26.76;49.40;101577.63;5063097;28;20025;-60
2022/07/21 05:39:34;;;;;;;7.93;7.13;;;;;;;26.58;49.11;101542.75;5064609;28;20033;-59
2022/07/21 05:41:59;;;;;;;8.05;6.50;;;;;;;26.77;49.07;101562.97;5087813;28;20107;-59
2022/07/21 05:44:24;;;;;;;7.57;6.18;;;;;;;26.58;49.02;101534.56;5086785;28;20039;-59
2022/07/21 05:46:49;;;;;;;6.85;6.15;;;;;;;26.77;49.02;101576.59;5086525;28;20035;-59
2022/07/21 05:49:15;;;;;;;7.25;6.55;;;;;;;26.76;48.88;101583.94;5086850;28;20048;-60
2022/07/21 05:51:40;;;;;;;8.35;7.35;;;;;;;26.76;48.83;101594.84;5087858;28;20062;-59
2022/07/21 05:54:05;;;;;;;9.43;6.90;;;;;;;26.59;48.90;101567.09;5087493;28;20037;-59
2022/07/21 05:56:30;;;;;;;8.10;7.05;;;;;;;26.77;49.08;101599.25;5087685;28;20035;-59
2022/07/21 05:58:56;;;;;;;8.02;7.22;;;;;;;26.77;49.24;101599.25;5087943;28;20477;-59
2022/07/21 06:01:21;;;;;;;7.78;7.00;;;;;;;26.59;49.20;101567.09;5087621;28;20028;-58
2022/07/21 06:03:48;;;;;;;7.75;7.00;;;;;;;26.78;48.75;101600.94;5087766;28;20024;-59
2022/07/21 06:06:16;;;;;;;8.30;7.50;;;;;;;26.79;49.05;101612.69;5087372;28;20032;-59
2022/07/21 06:08:42;;;;;;;8.35;7.32;;;;;;;26.79;49.06;101618.97;5085736;28;20031;-59
2022/07/21 06:11:09;;;;;;;8.50;7.60;;;;;;;26.79;49.35;101621.72;5086424;28;20081;-59
2022/07/21 06:13:35;;;;;;;9.02;7.63;;;;;;;26.80;49.15;101622.53;5085494;28;20447;-59
2022/07/21 06:16:01;;;;;;;9.07;8.18;;;;;;;26.80;49.35;101628.84;5086197;28;20025;-58
2022/07/21 06:18:26;;;;;;;9.57;8.57;;;;;;;26.64;49.17;101602.78;5069272;28;20032;-59
2022/07/21 06:20:51;;;;;;;8.80;7.88;;;;;;;26.81;49.35;101630.56;5087214;28;20039;-60
2022/07/21 06:23:17;;;;;;;10.07;9.02;;;;;;;26.83;49.28;101628.44;5085427;28;20051;-60
2022/07/21 06:25:42;;;;;;;9.80;8.13;;;;;;;26.84;49.21;101626.56;5087237;28;20025;-59
2022/07/21 06:28:07;;;;;;;9.52;8.32;;;;;;;26.83;49.36;101623.00;5085951;28;20047;-59
2022/07/21 06:30:33;;;;;;;9.35;8.45;;;;;;;26.69;49.28;101602.16;5087094;28;20025;-59
2022/07/21 06:32:58;;;;;;;10.18;9.15;;;;;;;26.84;49.51;101624.66;5085766;28;20042;-59
2022/07/21 06:35:24;;;;;;;11.02;9.68;;;;;;;26.65;49.38;101595.44;5068966;28;20027;-58
2022/07/21 06:37:49;;;;;;;11.15;9.85;;;;;;;26.64;49.27;101601.94;5085537;28;20047;-59
2022/07/21 06:40:14;;;;;;;10.75;9.75;;;;;;;26.85;49.53;101642.75;5079182;28;20021;-60
2022/07/21 06:42:39;;;;;;;12.10;10.55;;;;;;;26.75;49.67;101638.69;5065210;28;20025;-59
2022/07/21 06:45:05;;;;;;;11.32;10.10;;;;;;;26.81;49.53;101655.09;5065922;28;20036;-59
2022/07/21 06:47:31;;;;;;;13.07;11.00;;;;;;;26.82;49.71;101661.41;5066239;28;20055;-59
2022/07/21 06:50:02;;;;;;;12.15;10.95;;;;;;;26.81;49.52;101663.28;5066799;28;20060;-59
2022/07/21 06:52:27;;;;;;;11.18;10.07;;;;;;;26.63;49.29;101636.56;5067005;28;20037;-59
2022/07/21 06:54:52;;;;;;;12.57;10.18;;;;;;;26.77;49.65;101672.09;5066376;28;20497;-59
2022/07/21 06:57:17;;;;;;;11.90;10.43;;;;;;;26.60;49.33;101636.13;5066728;28;20020;-59
2022/07/21 06:59:43;;;;;;;12.35;10.77;;;;;;;26.79;49.40;101672.72;5065082;28;20445;-59
2022/07/21 07:02:08;;;;;;;11.73;10.50;;;;;;;26.68;49.46;101655.06;5066578;28;20084;-59
2022/07/21 07:04:33;;;;;;;11.40;10.30;;;;;;;26.78;49.33;101673.75;5066332;28;20060;-59
2022/07/21 07:06:59;;;;;;;11.77;10.68;;;;;;;26.76;49.33;101667.66;5048478;28;20025;-60
2022/07/21 07:09:24;;;;;;;12.48;11.18;;;;;;;26.55;49.29;101631.28;5065950;28;20549;-58
2022/07/21 07:11:52;;;;;;;12.65;11.30;;;;;;;26.74;49.41;101670.59;5065066;28;20016;-59
2022/07/21 07:14:17;;;;;;;12.43;10.60;;;;;;;26.74;49.36;101670.59;5048741;28;20029;-60
2022/07/21 07:16:42;;;;;;;11.65;10.55;;;;;;;26.74;49.27;101677.94;5065990;28;20028;-60
2022/07/21 07:19:08;;;;;;;12.75;11.45;;;;;;;26.76;49.25;101675.84;5065023;28;20029;-59
2022/07/21 07:21:33;;;;;;;13.55;11.60;;;;;;;26.74;49.45;101667.03;5065841;28;20040;-59
2022/07/21 07:23:58;;;;;;;13.30;11.90;;;;;;;26.75;49.32;101668.69;5065594;28;20059;-59
2022/07/21 07:26:23;;;;;;;11.68;10.48;;;;;;;26.60;49.47;101630.66;5047526;28;20025;-59
2022/07/21 07:28:49;;;;;;;12.13;10.93;;;;;;;26.76;49.31;101660.34;5064805;28;20017;-60
2022/07/21 07:31:14;;;;;;;13.55;11.50;;;;;;;26.76;49.30;101667.66;5066026;28;20382;-59
2022/07/21 07:33:39;;;;;;;14.00;11.75;;;;;;;26.76;49.37;101664.91;5065945;28;20021;-58
2022/07/21 07:36:05;;;;;;;13.38;12.07;;;;;;;26.73;49.40;101668.06;5064762;28;20027;-59
2022/07/21 07:38:30;;;;;;;12.60;11.40;;;;;;;26.75;49.66;101669.53;5065134;28;20025;-59
2022/07/21 07:40:55;;;;;;;13.73;12.27;;;;;;;26.75;49.53;101665.97;5076881;28;20040;-59
2022/07/21 07:43:20;;;;;;;13.80;12.35;;;;;;;26.75;49.70;101666.81;5085500;28;20036;-59
2022/07/21 07:45:46;;;;;;;13.00;11.70;;;;;;;26.77;49.49;101663.91;5085798;28;20040;-60
2022/07/21 07:48:11;;;;;;;13.50;12.13;;;;;;;26.79;49.70;101659.91;5084337;28;20059;-60
2022/07/21 07:50:37;;;;;;;13.77;12.38;;;;;;;26.76;49.66;101651.28;5084326;28;20111;-59
2022/07/21 07:53:02;;;;;;;14.20;11.75;;;;;;;26.61;49.71;101625.00;5067751;28;20107;-59
2022/07/21 07:55:28;;;;;;;13.13;11.82;;;;;;;26.66;49.67;101636.13;5084953;28;20469;-60
2022/07/21 07:57:54;;;;;;;13.32;11.93;;;;;;;26.81;49.92;101660.56;5084159;28;20020;-60
2022/07/21 08:00:20;;;;;;;13.80;12.35;;;;;;;26.82;49.79;101659.50;5084268;28;20021;-59
2022/07/21 08:02:45;;;;;;;14.13;12.63;;;;;;;26.78;49.59;101660.13;5084082;28;20108;-59
2022/07/21 08:05:11;;;;;;;14.20;12.23;;;;;;;26.86;49.74;101662.69;5085579;28;20024;-60
2022/07/21 08:07:38;;;;;;;13.48;12.00;;;;;;;26.60;49.59;101622.50;5083959;28;20036;-59
2022/07/21 08:10:09;;;;;;;12.45;11.25;;;;;;;26.88;49.79;101660.56;5083725;28;20430;-59
2022/07/21 08:12:35;;;;;;;12.88;11.68;;;;;;;26.88;49.93;101661.41;5083942;28;20048;-59
2022/07/21 08:15:02;;;;;;;12.43;11.27;;;;;;;26.88;49.57;101645.03;5085384;28;20052;-59
2022/07/21 08:17:27;;;;;;;14.23;12.75;;;;;;;26.90;49.65;101644.84;5085237;28;20024;-60
2022/07/21 08:19:53;;;;;;;13.20;11.85;;;;;;;26.90;49.86;101636.66;5084211;28;20024;-59
2022/07/21 08:22:18;;;;;;;12.70;11.40;;;;;;;26.91;49.68;101638.34;5084169;28;20031;-59
2022/07/21 08:24:43;;;;;;;13.13;11.80;;;;;;;26.91;49.64;101633.72;5083425;28;20120;-59
2022/07/21 08:27:08;;;;;;;12.27;11.15;;;;;;;26.73;49.78;101610.78;5085040;28;20024;-59
2022/07/21 08:29:34;;;;;;;14.43;12.90;;;;;;;26.73;49.56;101624.44;5067371;28;20039;-60
2022/07/21 08:31:59;;;;;;;14.50;13.00;;;;;;;26.71;49.65;101615.59;5084016;28;20050;-59
2022/07/21 08:34:25;;;;;;;13.52;12.13;;;;;;;26.91;49.65;101639.19;5085212;28;20025;-58
2022/07/21 08:36:50;;;;;;;13.82;12.40;;;;;;;26.91;49.74;101641.91;5084801;28;20393;-60
2022/07/21 08:39:15;;;;;;;12.63;11.43;;;;;;;26.92;49.52;101638.13;5084743;28;20032;-59
2022/07/21 08:41:41;;;;;;;13.68;12.00;;;;;;;26.93;49.32;101641.69;5065535;28;20033;-59
2022/07/21 08:44:10;;;;;;;13.18;11.20;;;;;;;26.82;49.20;101631.38;5063643;28;20057;-60
2022/07/21 08:46:36;;;;;;;12.52;11.15;;;;;;;26.90;49.45;101639.41;5063579;28;20028;-59
2022/07/21 08:49:02;;;;;;;11.88;10.68;;;;;;;26.69;49.22;101604.91;5046828;28;20044;-59
2022/07/21 08:51:32;;;;;;;12.32;11.02;;;;;;;26.69;49.32;101604.91;5063301;28;20037;-60
2022/07/21 08:53:57;;;;;;;13.48;11.88;;;;;;;26.90;49.24;101642.97;5046562;28;20398;-59
2022/07/21 08:56:22;;;;;;;11.98;10.75;;;;;;;26.76;49.11;101622.16;5063463;28;20032;-59
2022/07/21 08:58:47;;;;;;;10.90;9.80;;;;;;;26.94;49.22;101643.41;5064844;28;20470;-59
2022/07/21 09:01:13;;;;;;;10.98;9.82;;;;;;;26.95;49.49;101652.44;5064526;28;20025;-59
2022/07/21 09:03:38;;;;;;;12.10;10.85;;;;;;;26.77;49.33;101617.53;5063698;28;20032;-60
2022/07/21 09:06:10;;;;;;;10.98;9.98;;;;;;;26.73;49.49;101608.91;5046458;28;20035;-59
2022/07/21 09:08:41;;;;;;;11.90;10.80;;;;;;;26.95;49.45;101645.06;5063358;28;20017;-59
2022/07/21 09:11:27;;;;;;;12.75;11.50;;;;;;;26.96;49.27;101643.19;5063703;28;20033;-59
2022/07/21 09:14:10;;;;;;;12.77;11.50;;;;;;;26.95;49.34;101646.97;5063014;28;20033;-59
2022/07/21 09:16:36;;;;;;;11.73;10.52;;;;;;;26.95;49.57;101656.00;5063244;28;20044;-58
2022/07/21 09:19:01;;;;;;;11.15;10.02;;;;;;;26.91;49.49;101647.38;5064961;28;20493;-58
2022/07/21 09:21:28;;;;;;;11.98;10.77;;;;;;;26.95;49.25;101664.19;5063033;28;20086;-60
2022/07/21 09:24:10;;;;;;;11.93;10.77;;;;;;;26.96;49.29;101665.03;5063048;28;20024;-58
2022/07/21 09:26:55;;;;;;;11.70;10.60;;;;;;;26.94;49.38;101665.22;5063279;28;20065;-58
2022/07/21 09:29:20;;;;;;;12.00;10.80;;;;;;;26.92;49.35;101659.97;5064883;28;20662;-59
2022/07/21 09:31:46;;;;;;;11.63;10.23;;;;;;;26.91;49.50;101658.28;5064426;28;20017;-60
2022/07/21 09:34:14;;;;;;;11.98;10.60;;;;;;;26.91;48.93;101666.47;5064685;28;20028;-59
2022/07/21 09:36:39;;;;;;;10.90;9.80;;;;;;;26.89;49.03;101662.28;5063985;28;20032;-60
2022/07/21 09:39:04;;;;;;;12.13;10.95;;;;;;;26.86;49.03;101659.94;5064129;28;20389;-59
2022/07/21 09:41:30;;;;;;;11.35;10.18;;;;;;;26.67;49.10;101636.97;5079957;28;20021;-59
2022/07/21 09:43:56;;;;;;;12.18;9.75;;;;;;;26.84;48.72;101667.47;5084125;28;20020;-59
2022/07/21 09:46:24;;;;;;;10.82;9.73;;;;;;;26.61;48.96;101625.00;5084215;28;20028;-59
2022/07/21 09:48:52;;;;;;;11.60;10.00;;;;;;;26.83;48.68;101668.53;5085597;28;20064;-59
2022/07/21 09:51:27;;;;;;;11.43;10.32;;;;;;;26.81;49.07;101663.28;5070051;28;20055;-59
2022/07/21 09:53:56;;;;;;;11.27;10.02;;;;;;;26.81;48.74;101671.47;5086579;28;20103;-59
2022/07/21 09:56:22;;;;;;;12.02;10.88;;;;;;;26.50;48.89;101620.09;5086554;28;20024;-59
2022/07/21 09:58:51;;;;;;;11.60;9.93;;;;;;;26.78;48.71;101671.88;5086446;28;20033;-59
2022/07/21 10:01:16;;;;;;;12.32;9.75;;;;;;;26.78;49.09;101676.50;5069607;28;20048;-59
2022/07/21 10:03:46;;;;;;;11.65;10.52;;;;;;;26.77;48.63;101677.53;5087931;28;20032;-59
2022/07/21 10:06:13;;;;;;;11.45;10.27;;;;;;;26.76;48.92;101682.16;5086416;28;20054;-59
2022/07/21 10:08:38;;;;;;;12.77;11.15;;;;;;;26.53;49.07;101643.41;5086166;28;20021;-59
2022/07/21 10:11:05;;;;;;;11.68;10.25;;;;;;;26.74;49.23;101686.97;5087874;28;20084;-60
2022/07/21 10:13:30;;;;;;;16.13;10.77;;;;;;;26.54;49.31;101651.38;5086214;28;20024;-60
2022/07/21 10:15:57;;;;;;;13.15;10.48;;;;;;;26.73;49.44;101674.38;5087493;28;20028;-59
2022/07/21 10:18:25;;;;;;;11.75;10.57;;;;;;;26.73;49.44;101685.28;5086466;28;20058;-59
2022/07/21 10:20:55;;;;;;;13.30;9.85;;;;;;;26.49;49.69;101636.69;5086196;28;20020;-60
2022/07/21 10:23:42;;;;;;;10.43;9.32;;;;;;;26.72;49.44;101678.16;5086165;28;20025;-59
2022/07/21 10:26:08;;;;;;;12.60;9.80;;;;;;;26.72;49.94;101685.47;5087186;28;20016;-59
2022/07/21 10:28:33;;;;;;;10.98;9.32;;;;;;;26.71;49.62;101679.19;5086047;28;20034;-59
2022/07/21 10:30:59;;;;;;;10.60;9.07;;;;;;;26.46;49.80;101635.19;5086957;28;20056;-60
2022/07/21 10:33:49;;;;;;;10.18;9.13;;;;;;;26.71;49.95;101670.16;5085978;28;20024;-58
2022/07/21 10:36:27;;;;;;;11.43;9.20;;;;;;;26.72;50.02;101674.56;5085576;28;20032;-60
2022/07/21 10:39:08;;;;;;;12.20;9.53;;;;;;;26.73;49.91;101676.25;5086429;28;20020;-61
2022/07/21 10:41:45;;;;;;;9.80;8.20;;;;;;;26.73;50.03;101688.00;5069468;28;20028;-59
2022/07/21 10:44:30;;;;;;;11.05;8.55;;;;;;;26.74;50.24;101686.97;5065487;28;20131;-59
2022/07/21 10:47:25;;;;;;;9.88;8.23;;;;;;;26.74;50.20;101681.50;5066339;28;20028;-60
2022/07/21 10:49:52;;;;;;;7.88;7.07;;;;;;;26.74;50.24;101684.22;5065954;28;20027;-59
2022/07/21 10:52:39;;;;;;;7.93;7.13;;;;;;;26.75;50.09;101685.06;5066850;28;20029;-59
2022/07/21 10:55:13;;;;;;;9.30;7.45;;;;;;;26.74;50.32;101683.41;5066234;28;20028;-59
2022/07/21 10:57:46;;;;;;;7.38;6.68;;;;;;;26.73;50.17;101688.00;5066421;28;20025;-60
2022/07/21 11:00:23;;;;;;;6.53;5.88;;;;;;;26.73;50.23;101684.44;5065739;28;20027;-59
2022/07/21 11:02:55;;;;;;;6.93;5.78;;;;;;;26.72;50.40;101690.94;5065306;28;20040;-59
2022/07/21 11:05:21;;;;;;;5.95;5.30;;;;;;;26.43;50.44;101650.06;5066753;28;20470;-59
2022/07/21 11:08:16;;;;;;;6.10;5.50;;;;;;;26.70;50.17;101698.47;5065003;28;20033;-60
2022/07/21 11:10:47;;;;;;;6.90;5.20;;;;;;;26.66;50.29;101696.16;5064792;28;20036;-60
2022/07/21 11:13:13;;;;;;;4.57;4.13;;;;;;;26.66;50.23;101707.06;5066221;28;20017;-60
2022/07/21 11:15:42;;;;;;;4.05;3.65;;;;;;;26.66;50.29;101706.22;5065196;28;20153;-59
2022/07/21 11:18:08;;;;;;;5.30;4.28;;;;;;;26.64;50.22;101700.13;5064765;28;20529;-60
2022/07/21 11:20:33;;;;;;;4.68;4.03;;;;;;;26.64;50.44;101697.41;5064864;28;20025;-59